sensor_id;sensor_type;location;lat;lon;timestamp;temperature;humidity
18823;DHT22;9540;51.550;7.980;2024-03-25T00:00:34;5.30;99.90
18823;DHT22;9540;51.550;7.980;2024-03-25T00:03:01;5.30;99.90
18823;DHT22;9540;51.550;7.980;2024-03-25T00:05:29;5.20;99.90
18823;DHT22;9540;51.550;7.980;2024-03-25T00:07:58;5.20;99.90
18823;DHT22;9540;51.550;7.980;2024-03-25T00:10:24;5.20;99.90
18823;DHT22;9540;51.550;7.980;2024-03-25T00:12:51;5.20;99.90
18823;DHT22;9540;51.550;7.980;2024-03-25T00:15:20;5.10;99.90
18823;DHT22;9540;51.550;7.980;2024-03-25T00:17:49;5.10;99.90
18823;DHT22;9540;51.550;7.980;2024-03-25T00:20:15;5.10;99.90
18823;DHT22;9540;51.550;7.980;2024-03-25T00:22:44;5.10;99.90
18823;DHT22;9540;51.550;7.980;2024-03-25T00:25:10;5.10;99.90
18823;DHT22;9540;51.550;7.980;2024-03-25T00:27:37;5.10;99.90
18823;DHT22;9540;51.550;7.980;2024-03-25T00:30:04;5.00;99.90
18823;DHT22;9540;51.550;7.980;2024-03-25T00:32:31;5.00;99.90
18823;DHT22;9540;51.550;7.980;2024-03-25T00:34:57;4.90;99.90
18823;DHT22;9540;51.550;7.980;2024-03-25T00:37:24;4.90;99.90
18823;DHT22;9540;51.550;7.980;2024-03-25T00:39:52;4.90;99.90
18823;DHT22;9540;51.550;7.980;2024-03-25T00:42:19;4.90;99.90
18823;DHT22;9540;51.550;7.980;2024-03-25T00:44:45;4.90;99.90
18823;DHT22;9540;51.550;7.980;2024-03-25T00:47:12;4.90;99.90
18823;DHT22;9540;51.550;7.980;2024-03-25T00:49:38;4.90;99.90
18823;DHT22;9540;51.550;7.980;2024-03-25T00:52:05;4.90;99.90
18823;DHT22;9540;51.550;7.980;2024-03-25T00:54:31;4.90;99.90
18823;DHT22;9540;51.550;7.980;2024-03-25T00:57:00;4.90;99.90
18823;DHT22;9540;51.550;7.980;2024-03-25T00:59:26;4.90;99.90
18823;DHT22;9540;51.550;7.980;2024-03-25T01:01:53;4.90;99.90
18823;DHT22;9540;51.550;7.980;2024-03-25T01:04:19;4.90;99.90
18823;DHT22;9540;51.550;7.980;2024-03-25T01:06:46;4.90;99.90
18823;DHT22;9540;51.550;7.980;2024-03-25T01:09:12;4.90;99.90
18823;DHT22;9540;51.550;7.980;2024-03-25T01:11:39;4.90;99.90
18823;DHT22;9540;51.550;7.980;2024-03-25T01:14:07;4.90;99.90
18823;DHT22;9540;51.550;7.980;2024-03-25T01:16:34;4.90;99.90
18823;DHT22;9540;51.550;7.980;2024-03-25T01:19:00;4.90;99.90
18823;DHT22;9540;51.550;7.980;2024-03-25T01:21:27;4.90;99.90
18823;DHT22;9540;51.550;7.980;2024-03-25T01:23:53;4.90;99.90
18823;DHT22;9540;51.550;7.980;2024-03-25T01:26:23;4.90;99.90
18823;DHT22;9540;51.550;7.980;2024-03-25T01:28:49;4.90;99.90
18823;DHT22;9540;51.550;7.980;2024-03-25T01:31:18;4.90;99.90
18823;DHT22;9540;51.550;7.980;2024-03-25T01:33:45;4.90;99.90
18823;DHT22;9540;51.550;7.980;2024-03-25T01:36:12;4.90;99.90
18823;DHT22;9540;51.550;7.980;2024-03-25T01:38:42;4.90;99.90
18823;DHT22;9540;51.550;7.980;2024-03-25T01:41:09;4.90;99.90
18823;DHT22;9540;51.550;7.980;2024-03-25T01:43:35;4.90;99.90
18823;DHT22;9540;51.550;7.980;2024-03-25T01:46:02;4.80;99.90
18823;DHT22;9540;51.550;7.980;2024-03-25T01:48:32;4.80;99.90
18823;DHT22;9540;51.550;7.980;2024-03-25T01:50:59;4.80;99.90
18823;DHT22;9540;51.550;7.980;2024-03-25T01:53:28;4.80;99.90
18823;DHT22;9540;51.550;7.980;2024-03-25T01:55:55;4.70;99.90
18823;DHT22;9540;51.550;7.980;2024-03-25T01:58:23;4.80;99.90
18823;DHT22;9540;51.550;7.980;2024-03-25T02:00:52;4.80;99.90
18823;DHT22;9540;51.550;7.980;2024-03-25T02:03:20;4.70;99.90
18823;DHT22;9540;51.550;7.980;2024-03-25T02:05:49;4.70;99.90
18823;DHT22;9540;51.550;7.980;2024-03-25T02:08:17;4.70;99.90
18823;DHT22;9540;51.550;7.980;2024-03-25T02:10:44;4.70;99.90
18823;DHT22;9540;51.550;7.980;2024-03-25T02:13:12;4.70;99.90
18823;DHT22;9540;51.550;7.980;2024-03-25T02:15:38;4.60;99.90
18823;DHT22;9540;51.550;7.980;2024-03-25T02:18:07;4.70;99.90
18823;DHT22;9540;51.550;7.980;2024-03-25T02:20:33;4.60;99.90
18823;DHT22;9540;51.550;7.980;2024-03-25T02:23:02;4.70;99.90
18823;DHT22;9540;51.550;7.980;2024-03-25T02:25:28;4.70;99.90
18823;DHT22;9540;51.550;7.980;2024-03-25T02:27:59;4.70;99.90
18823;DHT22;9540;51.550;7.980;2024-03-25T02:30:25;4.70;99.90
18823;DHT22;9540;51.550;7.980;2024-03-25T02:32:52;4.70;99.90
18823;DHT22;9540;51.550;7.980;2024-03-25T02:35:18;4.80;99.90
18823;DHT22;9540;51.550;7.980;2024-03-25T02:37:45;4.70;99.90
18823;DHT22;9540;51.550;7.980;2024-03-25T02:40:11;4.80;99.90
18823;DHT22;9540;51.550;7.980;2024-03-25T02:42:39;4.70;99.90
18823;DHT22;9540;51.550;7.980;2024-03-25T02:45:08;4.70;99.90
18823;DHT22;9540;51.550;7.980;2024-03-25T02:47:35;4.70;99.90
18823;DHT22;9540;51.550;7.980;2024-03-25T02:50:01;4.70;99.90
18823;DHT22;9540;51.550;7.980;2024-03-25T02:52:30;4.70;99.90
18823;DHT22;9540;51.550;7.980;2024-03-25T02:54:57;4.70;99.90
18823;DHT22;9540;51.550;7.980;2024-03-25T02:57:23;4.70;99.90
18823;DHT22;9540;51.550;7.980;2024-03-25T02:59:50;4.70;99.90
18823;DHT22;9540;51.550;7.980;2024-03-25T03:02:18;4.70;99.90
18823;DHT22;9540;51.550;7.980;2024-03-25T03:04:45;4.70;99.90
18823;DHT22;9540;51.550;7.980;2024-03-25T03:07:11;4.70;99.90
18823;DHT22;9540;51.550;7.980;2024-03-25T03:09:38;4.70;99.90
18823;DHT22;9540;51.550;7.980;2024-03-25T03:12:05;4.70;99.90
18823;DHT22;9540;51.550;7.980;2024-03-25T03:14:32;4.60;99.90
18823;DHT22;9540;51.550;7.980;2024-03-25T03:16:58;4.60;99.90
18823;DHT22;9540;51.550;7.980;2024-03-25T03:19:27;4.70;99.90
18823;DHT22;9540;51.550;7.980;2024-03-25T03:21:53;4.70;99.90
18823;DHT22;9540;51.550;7.980;2024-03-25T03:24:20;4.60;99.90
18823;DHT22;9540;51.550;7.980;2024-03-25T03:26:46;4.60;99.90
18823;DHT22;9540;51.550;7.980;2024-03-25T03:29:13;4.60;99.90
18823;DHT22;9540;51.550;7.980;2024-03-25T03:31:39;4.60;99.90
18823;DHT22;9540;51.550;7.980;2024-03-25T03:34:06;4.60;99.90
18823;DHT22;9540;51.550;7.980;2024-03-25T03:36:34;4.50;99.90
18823;DHT22;9540;51.550;7.980;2024-03-25T03:39:01;4.60;99.90
18823;DHT22;9540;51.550;7.980;2024-03-25T03:41:27;4.60;99.90
18823;DHT22;9540;51.550;7.980;2024-03-25T03:43:54;4.60;99.90
18823;DHT22;9540;51.550;7.980;2024-03-25T03:46:20;4.60;99.90
18823;DHT22;9540;51.550;7.980;2024-03-25T03:48:47;4.60;99.90
18823;DHT22;9540;51.550;7.980;2024-03-25T03:51:13;4.60;99.90
18823;DHT22;9540;51.550;7.980;2024-03-25T03:53:41;4.60;99.90
18823;DHT22;9540;51.550;7.980;2024-03-25T03:56:07;4.60;99.90
18823;DHT22;9540;51.550;7.980;2024-03-25T03:58:35;4.50;99.90
18823;DHT22;9540;51.550;7.980;2024-03-25T04:01:01;4.50;99.90
18823;DHT22;9540;51.550;7.980;2024-03-25T04:03:30;4.50;99.90
18823;DHT22;9540;51.550;7.980;2024-03-25T04:05:56;4.40;99.90
18823;DHT22;9540;51.550;7.980;2024-03-25T04:08:23;4.30;99.90
18823;DHT22;9540;51.550;7.980;2024-03-25T04:10:50;4.30;99.90
18823;DHT22;9540;51.550;7.980;2024-03-25T04:13:17;4.20;99.90
18823;DHT22;9540;51.550;7.980;2024-03-25T04:15:44;4.10;99.90
18823;DHT22;9540;51.550;7.980;2024-03-25T04:18:11;4.10;99.90
18823;DHT22;9540;51.550;7.980;2024-03-25T04:20:37;4.10;99.90
18823;DHT22;9540;51.550;7.980;2024-03-25T04:23:05;4.20;99.90
18823;DHT22;9540;51.550;7.980;2024-03-25T04:25:33;4.20;99.90
18823;DHT22;9540;51.550;7.980;2024-03-25T04:28:05;4.20;99.90
18823;DHT22;9540;51.550;7.980;2024-03-25T04:30:31;4.30;99.90
18823;DHT22;9540;51.550;7.980;2024-03-25T04:32:59;4.30;99.90
18823;DHT22;9540;51.550;7.980;2024-03-25T04:35:25;4.40;99.90
18823;DHT22;9540;51.550;7.980;2024-03-25T04:37:52;4.40;99.90
18823;DHT22;9540;51.550;7.980;2024-03-25T04:40:18;4.40;99.90
18823;DHT22;9540;51.550;7.980;2024-03-25T04:42:45;4.40;99.90
18823;DHT22;9540;51.550;7.980;2024-03-25T04:45:12;4.30;99.90
18823;DHT22;9540;51.550;7.980;2024-03-25T04:47:39;4.30;99.90
18823;DHT22;9540;51.550;7.980;2024-03-25T04:50:06;4.30;99.90
18823;DHT22;9540;51.550;7.980;2024-03-25T04:52:32;4.30;99.90
18823;DHT22;9540;51.550;7.980;2024-03-25T04:54:58;4.30;99.90
18823;DHT22;9540;51.550;7.980;2024-03-25T04:57:28;4.30;99.90
18823;DHT22;9540;51.550;7.980;2024-03-25T04:59:54;4.30;99.90
18823;DHT22;9540;51.550;7.980;2024-03-25T05:02:21;4.30;99.90
18823;DHT22;9540;51.550;7.980;2024-03-25T05:04:47;4.30;99.90
18823;DHT22;9540;51.550;7.980;2024-03-25T05:07:13;4.40;99.90
18823;DHT22;9540;51.550;7.980;2024-03-25T05:09:39;4.30;99.90
18823;DHT22;9540;51.550;7.980;2024-03-25T05:12:06;4.40;99.90
18823;DHT22;9540;51.550;7.980;2024-03-25T05:14:32;4.40;99.90
18823;DHT22;9540;51.550;7.980;2024-03-25T05:17:01;4.40;99.90
18823;DHT22;9540;51.550;7.980;2024-03-25T05:19:28;4.40;99.90
18823;DHT22;9540;51.550;7.980;2024-03-25T05:21:54;4.40;99.90
18823;DHT22;9540;51.550;7.980;2024-03-25T05:24:20;4.30;99.90
18823;DHT22;9540;51.550;7.980;2024-03-25T05:26:47;4.30;99.90
18823;DHT22;9540;51.550;7.980;2024-03-25T05:29:13;4.30;99.90
18823;DHT22;9540;51.550;7.980;2024-03-25T05:31:39;4.30;99.90
18823;DHT22;9540;51.550;7.980;2024-03-25T05:34:20;4.30;99.90
18823;DHT22;9540;51.550;7.980;2024-03-25T05:36:48;4.30;99.90
18823;DHT22;9540;51.550;7.980;2024-03-25T05:39:14;4.30;99.90
18823;DHT22;9540;51.550;7.980;2024-03-25T05:41:40;4.30;99.90
18823;DHT22;9540;51.550;7.980;2024-03-25T05:44:06;4.40;99.90
18823;DHT22;9540;51.550;7.980;2024-03-25T05:46:32;4.40;99.90
18823;DHT22;9540;51.550;7.980;2024-03-25T05:49:01;4.40;99.90
18823;DHT22;9540;51.550;7.980;2024-03-25T05:51:27;4.40;99.90
18823;DHT22;9540;51.550;7.980;2024-03-25T05:53:55;4.40;99.90
18823;DHT22;9540;51.550;7.980;2024-03-25T05:56:21;4.40;99.90
18823;DHT22;9540;51.550;7.980;2024-03-25T05:58:47;4.40;99.90
18823;DHT22;9540;51.550;7.980;2024-03-25T06:01:13;4.50;99.90
18823;DHT22;9540;51.550;7.980;2024-03-25T06:03:39;4.40;99.90
18823;DHT22;9540;51.550;7.980;2024-03-25T06:06:08;4.50;99.90
18823;DHT22;9540;51.550;7.980;2024-03-25T06:08:34;4.50;99.90
18823;DHT22;9540;51.550;7.980;2024-03-25T06:11:02;4.50;99.90
18823;DHT22;9540;51.550;7.980;2024-03-25T06:13:28;4.50;99.90
18823;DHT22;9540;51.550;7.980;2024-03-25T06:15:54;4.60;99.90
18823;DHT22;9540;51.550;7.980;2024-03-25T06:18:26;4.60;99.90
18823;DHT22;9540;51.550;7.980;2024-03-25T06:20:53;4.70;99.90
18823;DHT22;9540;51.550;7.980;2024-03-25T06:23:23;4.70;99.90
18823;DHT22;9540;51.550;7.980;2024-03-25T06:25:50;4.70;99.90
18823;DHT22;9540;51.550;7.980;2024-03-25T06:28:17;4.70;99.90
18823;DHT22;9540;51.550;7.980;2024-03-25T06:30:45;4.70;99.90
18823;DHT22;9540;51.550;7.980;2024-03-25T06:33:29;4.80;99.90
18823;DHT22;9540;51.550;7.980;2024-03-25T06:36:17;4.80;99.90
18823;DHT22;9540;51.550;7.980;2024-03-25T06:38:44;4.80;99.90
18823;DHT22;9540;51.550;7.980;2024-03-25T06:41:10;4.90;99.90
18823;DHT22;9540;51.550;7.980;2024-03-25T06:43:37;5.00;99.90
18823;DHT22;9540;51.550;7.980;2024-03-25T06:46:07;5.10;99.90
18823;DHT22;9540;51.550;7.980;2024-03-25T06:48:36;5.20;99.90
18823;DHT22;9540;51.550;7.980;2024-03-25T06:51:02;5.30;99.90
18823;DHT22;9540;51.550;7.980;2024-03-25T06:53:29;5.40;99.90
18823;DHT22;9540;51.550;7.980;2024-03-25T06:55:56;5.40;99.90
18823;DHT22;9540;51.550;7.980;2024-03-25T06:58:23;5.50;99.90
18823;DHT22;9540;51.550;7.980;2024-03-25T07:00:51;5.60;99.90
18823;DHT22;9540;51.550;7.980;2024-03-25T07:03:19;5.70;99.90
18823;DHT22;9540;51.550;7.980;2024-03-25T07:05:45;5.70;99.90
18823;DHT22;9540;51.550;7.980;2024-03-25T07:08:11;5.70;99.90
18823;DHT22;9540;51.550;7.980;2024-03-25T07:10:37;5.80;99.90
18823;DHT22;9540;51.550;7.980;2024-03-25T07:13:06;5.80;99.90
18823;DHT22;9540;51.550;7.980;2024-03-25T07:15:32;5.90;99.90
18823;DHT22;9540;51.550;7.980;2024-03-25T07:18:00;5.80;99.90
18823;DHT22;9540;51.550;7.980;2024-03-25T07:20:26;5.80;99.90
18823;DHT22;9540;51.550;7.980;2024-03-25T07:22:52;5.90;99.90
18823;DHT22;9540;51.550;7.980;2024-03-25T07:25:21;5.90;99.90
18823;DHT22;9540;51.550;7.980;2024-03-25T07:27:51;5.90;99.90
18823;DHT22;9540;51.550;7.980;2024-03-25T07:30:17;6.00;99.90
18823;DHT22;9540;51.550;7.980;2024-03-25T07:32:43;6.10;99.90
18823;DHT22;9540;51.550;7.980;2024-03-25T07:35:11;6.00;99.90
18823;DHT22;9540;51.550;7.980;2024-03-25T07:37:38;6.00;99.90
18823;DHT22;9540;51.550;7.980;2024-03-25T07:40:05;6.00;99.90
18823;DHT22;9540;51.550;7.980;2024-03-25T07:42:31;6.20;99.90
18823;DHT22;9540;51.550;7.980;2024-03-25T07:44:57;6.30;99.90
18823;DHT22;9540;51.550;7.980;2024-03-25T07:47:23;6.40;99.90
18823;DHT22;9540;51.550;7.980;2024-03-25T07:49:49;6.30;99.90
18823;DHT22;9540;51.550;7.980;2024-03-25T07:52:16;6.40;99.90
18823;DHT22;9540;51.550;7.980;2024-03-25T07:54:45;6.40;99.90
18823;DHT22;9540;51.550;7.980;2024-03-25T07:57:11;6.40;99.90
18823;DHT22;9540;51.550;7.980;2024-03-25T07:59:38;6.50;99.90
18823;DHT22;9540;51.550;7.980;2024-03-25T08:02:04;6.70;99.90
18823;DHT22;9540;51.550;7.980;2024-03-25T08:04:30;6.90;99.90
18823;DHT22;9540;51.550;7.980;2024-03-25T08:06:57;6.90;99.90
18823;DHT22;9540;51.550;7.980;2024-03-25T08:09:24;7.10;99.90
18823;DHT22;9540;51.550;7.980;2024-03-25T08:11:50;7.60;99.90
18823;DHT22;9540;51.550;7.980;2024-03-25T08:14:16;8.10;99.90
18823;DHT22;9540;51.550;7.980;2024-03-25T08:16:42;8.30;99.90
18823;DHT22;9540;51.550;7.980;2024-03-25T08:19:08;8.40;99.90
18823;DHT22;9540;51.550;7.980;2024-03-25T08:21:34;8.50;99.90
18823;DHT22;9540;51.550;7.980;2024-03-25T08:24:00;8.60;99.90
18823;DHT22;9540;51.550;7.980;2024-03-25T08:26:27;9.00;99.90
18823;DHT22;9540;51.550;7.980;2024-03-25T08:28:54;9.20;99.90
18823;DHT22;9540;51.550;7.980;2024-03-25T08:31:20;9.20;99.90
18823;DHT22;9540;51.550;7.980;2024-03-25T08:33:46;9.30;99.90
18823;DHT22;9540;51.550;7.980;2024-03-25T08:36:12;9.40;99.90
18823;DHT22;9540;51.550;7.980;2024-03-25T08:38:38;9.40;99.90
18823;DHT22;9540;51.550;7.980;2024-03-25T08:41:04;9.50;99.90
18823;DHT22;9540;51.550;7.980;2024-03-25T08:43:31;9.40;99.90
18823;DHT22;9540;51.550;7.980;2024-03-25T08:45:57;9.30;99.90
18823;DHT22;9540;51.550;7.980;2024-03-25T08:48:24;9.40;99.90
18823;DHT22;9540;51.550;7.980;2024-03-25T08:50:50;9.30;99.90
18823;DHT22;9540;51.550;7.980;2024-03-25T08:53:16;9.40;99.90
18823;DHT22;9540;51.550;7.980;2024-03-25T08:55:45;9.40;99.90
18823;DHT22;9540;51.550;7.980;2024-03-25T08:58:12;9.30;99.90
18823;DHT22;9540;51.550;7.980;2024-03-25T09:00:39;8.90;99.90
18823;DHT22;9540;51.550;7.980;2024-03-25T09:03:05;8.60;99.90
18823;DHT22;9540;51.550;7.980;2024-03-25T09:05:31;8.30;99.90
18823;DHT22;9540;51.550;7.980;2024-03-25T09:07:57;8.20;99.90
18823;DHT22;9540;51.550;7.980;2024-03-25T09:10:23;8.30;99.90
18823;DHT22;9540;51.550;7.980;2024-03-25T09:13:19;8.40;99.90
18823;DHT22;9540;51.550;7.980;2024-03-25T09:15:47;8.50;99.90
18823;DHT22;9540;51.550;7.980;2024-03-25T09:18:13;8.60;99.90
18823;DHT22;9540;51.550;7.980;2024-03-25T09:20:39;8.40;99.90
18823;DHT22;9540;51.550;7.980;2024-03-25T09:23:08;8.20;99.90
18823;DHT22;9540;51.550;7.980;2024-03-25T09:25:34;8.10;99.90
18823;DHT22;9540;51.550;7.980;2024-03-25T09:28:00;8.10;99.90
18823;DHT22;9540;51.550;7.980;2024-03-25T09:30:26;8.10;99.90
18823;DHT22;9540;51.550;7.980;2024-03-25T09:32:54;8.30;99.90
18823;DHT22;9540;51.550;7.980;2024-03-25T09:35:20;9.30;99.90
18823;DHT22;9540;51.550;7.980;2024-03-25T09:37:46;10.10;99.90
18823;DHT22;9540;51.550;7.980;2024-03-25T09:40:12;10.10;99.90
18823;DHT22;9540;51.550;7.980;2024-03-25T09:42:44;9.70;99.90
18823;DHT22;9540;51.550;7.980;2024-03-25T09:45:15;9.30;99.90
18823;DHT22;9540;51.550;7.980;2024-03-25T09:47:45;8.90;99.90
18823;DHT22;9540;51.550;7.980;2024-03-25T09:50:14;9.10;99.90
18823;DHT22;9540;51.550;7.980;2024-03-25T09:52:40;10.60;99.90
18823;DHT22;9540;51.550;7.980;2024-03-25T09:55:07;12.10;99.90
18823;DHT22;9540;51.550;7.980;2024-03-25T09:57:34;13.50;99.90
18823;DHT22;9540;51.550;7.980;2024-03-25T10:00:04;14.20;99.90
18823;DHT22;9540;51.550;7.980;2024-03-25T10:02:34;13.90;99.90
18823;DHT22;9540;51.550;7.980;2024-03-25T10:05:01;14.40;99.90
18823;DHT22;9540;51.550;7.980;2024-03-25T10:07:29;14.90;99.90
18823;DHT22;9540;51.550;7.980;2024-03-25T10:09:55;15.70;99.90
18823;DHT22;9540;51.550;7.980;2024-03-25T10:12:21;16.60;99.90
18823;DHT22;9540;51.550;7.980;2024-03-25T10:14:47;16.80;99.90
18823;DHT22;9540;51.550;7.980;2024-03-25T10:17:13;16.40;99.90
18823;DHT22;9540;51.550;7.980;2024-03-25T10:19:39;15.90;99.90
18823;DHT22;9540;51.550;7.980;2024-03-25T10:22:06;14.90;99.90
18823;DHT22;9540;51.550;7.980;2024-03-25T10:24:41;14.20;99.90
18823;DHT22;9540;51.550;7.980;2024-03-25T10:27:10;13.60;99.90
18823;DHT22;9540;51.550;7.980;2024-03-25T10:29:40;13.00;99.90
18823;DHT22;9540;51.550;7.980;2024-03-25T10:32:10;13.00;99.90
18823;DHT22;9540;51.550;7.980;2024-03-25T10:34:36;13.60;99.90
18823;DHT22;9540;51.550;7.980;2024-03-25T10:37:04;14.20;99.90
18823;DHT22;9540;51.550;7.980;2024-03-25T10:39:32;14.80;99.90
18823;DHT22;9540;51.550;7.980;2024-03-25T10:42:02;14.50;99.90
18823;DHT22;9540;51.550;7.980;2024-03-25T10:44:29;14.40;99.90
18823;DHT22;9540;51.550;7.980;2024-03-25T10:47:00;14.50;99.90
18823;DHT22;9540;51.550;7.980;2024-03-25T10:49:33;14.50;99.90
18823;DHT22;9540;51.550;7.980;2024-03-25T10:52:01;14.10;99.90
18823;DHT22;9540;51.550;7.980;2024-03-25T10:54:30;14.00;99.90
18823;DHT22;9540;51.550;7.980;2024-03-25T10:57:01;14.00;99.90
18823;DHT22;9540;51.550;7.980;2024-03-25T10:59:30;13.80;99.90
18823;DHT22;9540;51.550;7.980;2024-03-25T11:01:56;13.80;99.90
18823;DHT22;9540;51.550;7.980;2024-03-25T11:04:22;14.20;99.90
18823;DHT22;9540;51.550;7.980;2024-03-25T11:06:52;14.40;99.90
18823;DHT22;9540;51.550;7.980;2024-03-25T11:09:25;13.90;99.90
18823;DHT22;9540;51.550;7.980;2024-03-25T11:11:54;13.30;99.90
18823;DHT22;9540;51.550;7.980;2024-03-25T11:14:25;13.00;99.90
18823;DHT22;9540;51.550;7.980;2024-03-25T11:16:52;12.90;99.90
18823;DHT22;9540;51.550;7.980;2024-03-25T11:19:18;12.80;99.90
18823;DHT22;9540;51.550;7.980;2024-03-25T11:21:45;12.20;99.90
18823;DHT22;9540;51.550;7.980;2024-03-25T11:24:11;12.00;99.90
18823;DHT22;9540;51.550;7.980;2024-03-25T11:26:40;11.60;99.90
18823;DHT22;9540;51.550;7.980;2024-03-25T11:29:07;11.20;99.90
18823;DHT22;9540;51.550;7.980;2024-03-25T11:31:34;11.30;99.90
18823;DHT22;9540;51.550;7.980;2024-03-25T11:34:04;11.50;99.90
18823;DHT22;9540;51.550;7.980;2024-03-25T11:36:32;11.70;99.90
18823;DHT22;9540;51.550;7.980;2024-03-25T11:38:59;12.30;99.90
18823;DHT22;9540;51.550;7.980;2024-03-25T11:41:26;12.70;99.90
18823;DHT22;9540;51.550;7.980;2024-03-25T11:43:52;12.80;99.90
18823;DHT22;9540;51.550;7.980;2024-03-25T11:46:19;13.00;99.90
18823;DHT22;9540;51.550;7.980;2024-03-25T11:48:46;13.30;99.90
18823;DHT22;9540;51.550;7.980;2024-03-25T11:51:14;13.00;99.90
18823;DHT22;9540;51.550;7.980;2024-03-25T11:53:42;12.90;99.90
18823;DHT22;9540;51.550;7.980;2024-03-25T11:56:08;13.00;99.90
18823;DHT22;9540;51.550;7.980;2024-03-25T11:58:35;13.10;99.90
18823;DHT22;9540;51.550;7.980;2024-03-25T12:01:01;12.90;99.90
18823;DHT22;9540;51.550;7.980;2024-03-25T12:03:28;12.60;99.90
18823;DHT22;9540;51.550;7.980;2024-03-25T12:05:57;12.70;99.90
18823;DHT22;9540;51.550;7.980;2024-03-25T12:08:23;12.50;99.90
18823;DHT22;9540;51.550;7.980;2024-03-25T12:10:50;13.00;99.90
18823;DHT22;9540;51.550;7.980;2024-03-25T12:13:34;13.30;99.90
18823;DHT22;9540;51.550;7.980;2024-03-25T12:16:01;13.10;99.90
18823;DHT22;9540;51.550;7.980;2024-03-25T12:18:28;13.30;99.90
18823;DHT22;9540;51.550;7.980;2024-03-25T12:20:58;13.50;99.90
18823;DHT22;9540;51.550;7.980;2024-03-25T12:23:29;13.90;99.90
18823;DHT22;9540;51.550;7.980;2024-03-25T12:25:55;14.00;99.90
18823;DHT22;9540;51.550;7.980;2024-03-25T12:28:22;13.80;99.90
18823;DHT22;9540;51.550;7.980;2024-03-25T12:30:52;13.90;99.90
18823;DHT22;9540;51.550;7.980;2024-03-25T12:33:22;13.90;99.90
18823;DHT22;9540;51.550;7.980;2024-03-25T12:35:49;14.40;99.90
18823;DHT22;9540;51.550;7.980;2024-03-25T12:38:24;14.60;99.90
18823;DHT22;9540;51.550;7.980;2024-03-25T12:40:53;14.50;99.90
18823;DHT22;9540;51.550;7.980;2024-03-25T12:43:20;14.30;99.90
18823;DHT22;9540;51.550;7.980;2024-03-25T12:45:46;14.10;99.90
18823;DHT22;9540;51.550;7.980;2024-03-25T12:48:12;14.10;99.90
18823;DHT22;9540;51.550;7.980;2024-03-25T12:50:38;13.60;99.90
18823;DHT22;9540;51.550;7.980;2024-03-25T12:53:04;13.40;99.90
18823;DHT22;9540;51.550;7.980;2024-03-25T12:55:32;13.40;99.90
18823;DHT22;9540;51.550;7.980;2024-03-25T12:58:00;13.40;99.90
18823;DHT22;9540;51.550;7.980;2024-03-25T13:00:26;13.60;99.90
18823;DHT22;9540;51.550;7.980;2024-03-25T13:02:52;13.30;99.90
18823;DHT22;9540;51.550;7.980;2024-03-25T13:05:18;13.00;99.90
18823;DHT22;9540;51.550;7.980;2024-03-25T13:07:44;12.70;99.90
18823;DHT22;9540;51.550;7.980;2024-03-25T13:10:10;12.40;99.90
18823;DHT22;9540;51.550;7.980;2024-03-25T13:12:37;12.60;99.90
18823;DHT22;9540;51.550;7.980;2024-03-25T13:15:04;12.80;99.90
18823;DHT22;9540;51.550;7.980;2024-03-25T13:17:30;13.20;99.90
18823;DHT22;9540;51.550;7.980;2024-03-25T13:19:57;13.20;99.90
18823;DHT22;9540;51.550;7.980;2024-03-25T13:22:23;13.10;99.90
18823;DHT22;9540;51.550;7.980;2024-03-25T13:24:49;13.00;99.90
18823;DHT22;9540;51.550;7.980;2024-03-25T13:27:15;12.80;99.90
18823;DHT22;9540;51.550;7.980;2024-03-25T13:29:43;12.60;99.90
18823;DHT22;9540;51.550;7.980;2024-03-25T13:32:09;12.30;99.90
18823;DHT22;9540;51.550;7.980;2024-03-25T13:34:35;12.30;99.90
18823;DHT22;9540;51.550;7.980;2024-03-25T13:37:01;12.60;99.90
18823;DHT22;9540;51.550;7.980;2024-03-25T13:39:27;13.00;99.90
18823;DHT22;9540;51.550;7.980;2024-03-25T13:41:54;13.20;99.90
18823;DHT22;9540;51.550;7.980;2024-03-25T13:44:20;13.40;99.90
18823;DHT22;9540;51.550;7.980;2024-03-25T13:46:47;13.50;99.90
18823;DHT22;9540;51.550;7.980;2024-03-25T13:49:13;13.70;99.90
18823;DHT22;9540;51.550;7.980;2024-03-25T13:51:39;13.70;99.90
18823;DHT22;9540;51.550;7.980;2024-03-25T13:54:07;13.70;99.90
18823;DHT22;9540;51.550;7.980;2024-03-25T13:56:33;13.90;99.90
18823;DHT22;9540;51.550;7.980;2024-03-25T13:58:59;13.70;99.90
18823;DHT22;9540;51.550;7.980;2024-03-25T14:01:25;13.60;99.90
18823;DHT22;9540;51.550;7.980;2024-03-25T14:03:53;13.90;99.90
18823;DHT22;9540;51.550;7.980;2024-03-25T14:06:19;14.00;99.90
18823;DHT22;9540;51.550;7.980;2024-03-25T14:08:45;14.10;99.90
18823;DHT22;9540;51.550;7.980;2024-03-25T14:11:11;13.70;99.90
18823;DHT22;9540;51.550;7.980;2024-03-25T14:13:38;13.70;99.90
18823;DHT22;9540;51.550;7.980;2024-03-25T14:16:04;14.00;99.90
18823;DHT22;9540;51.550;7.980;2024-03-25T14:18:31;14.40;99.90
18823;DHT22;9540;51.550;7.980;2024-03-25T14:20:58;14.10;99.90
18823;DHT22;9540;51.550;7.980;2024-03-25T14:23:24;13.90;99.90
18823;DHT22;9540;51.550;7.980;2024-03-25T14:25:51;13.70;99.90
18823;DHT22;9540;51.550;7.980;2024-03-25T14:28:19;13.30;99.90
18823;DHT22;9540;51.550;7.980;2024-03-25T14:30:45;13.20;99.90
18823;DHT22;9540;51.550;7.980;2024-03-25T14:33:11;12.80;99.90
18823;DHT22;9540;51.550;7.980;2024-03-25T14:35:37;12.80;99.90
18823;DHT22;9540;51.550;7.980;2024-03-25T14:38:04;12.90;99.90
18823;DHT22;9540;51.550;7.980;2024-03-25T14:40:30;13.00;99.90
18823;DHT22;9540;51.550;7.980;2024-03-25T14:42:56;13.10;99.90
18823;DHT22;9540;51.550;7.980;2024-03-25T14:45:22;13.00;99.90
18823;DHT22;9540;51.550;7.980;2024-03-25T14:47:49;12.90;99.90
18823;DHT22;9540;51.550;7.980;2024-03-25T14:50:15;13.00;99.90
18823;DHT22;9540;51.550;7.980;2024-03-25T14:52:41;12.90;99.90
18823;DHT22;9540;51.550;7.980;2024-03-25T14:55:09;12.90;99.90
18823;DHT22;9540;51.550;7.980;2024-03-25T14:57:36;12.90;99.90
18823;DHT22;9540;51.550;7.980;2024-03-25T15:00:03;12.70;99.90
18823;DHT22;9540;51.550;7.980;2024-03-25T15:02:37;12.80;99.90
18823;DHT22;9540;51.550;7.980;2024-03-25T15:05:12;12.60;99.90
18823;DHT22;9540;51.550;7.980;2024-03-25T15:07:46;12.50;99.90
18823;DHT22;9540;51.550;7.980;2024-03-25T15:10:22;12.40;99.90
18823;DHT22;9540;51.550;7.980;2024-03-25T15:12:52;12.30;99.90
18823;DHT22;9540;51.550;7.980;2024-03-25T15:15:22;12.20;99.90
18823;DHT22;9540;51.550;7.980;2024-03-25T15:17:50;12.10;99.90
18823;DHT22;9540;51.550;7.980;2024-03-25T15:20:16;12.10;99.90
18823;DHT22;9540;51.550;7.980;2024-03-25T15:22:42;12.10;99.90
18823;DHT22;9540;51.550;7.980;2024-03-25T15:25:08;11.90;99.90
18823;DHT22;9540;51.550;7.980;2024-03-25T15:27:36;11.90;99.90
18823;DHT22;9540;51.550;7.980;2024-03-25T15:30:02;11.70;99.90
18823;DHT22;9540;51.550;7.980;2024-03-25T15:32:29;11.60;99.90
18823;DHT22;9540;51.550;7.980;2024-03-25T15:34:55;11.60;99.90
18823;DHT22;9540;51.550;7.980;2024-03-25T15:37:21;11.50;99.90
18823;DHT22;9540;51.550;7.980;2024-03-25T15:39:47;11.40;99.90
18823;DHT22;9540;51.550;7.980;2024-03-25T15:42:13;11.50;99.90
18823;DHT22;9540;51.550;7.980;2024-03-25T15:44:40;11.50;99.90
18823;DHT22;9540;51.550;7.980;2024-03-25T15:47:06;11.50;99.90
18823;DHT22;9540;51.550;7.980;2024-03-25T15:49:33;11.40;99.90
18823;DHT22;9540;51.550;7.980;2024-03-25T15:51:59;11.40;99.90
18823;DHT22;9540;51.550;7.980;2024-03-25T15:54:25;11.50;99.90